sensor_id;sensor_type;location;lat;lon;timestamp;pressure;altitude;pressure_sealevel;temperature;humidity
39455;BME280;25155;41.890;23.446;2022-07-10T00:00:33;91773.03;;;15.25;68.19
39455;BME280;25155;41.890;23.446;2022-07-10T00:03:00;91773.63;;;15.22;68.33
39455;BME280;25155;41.890;23.446;2022-07-10T00:05:28;91779.47;;;15.19;68.01
39455;BME280;25155;41.890;23.446;2022-07-10T00:07:55;91771.56;;;15.19;68.54
39455;BME280;25155;41.890;23.446;2022-07-10T00:10:24;91767.22;;;15.15;68.98
39455;BME280;25155;41.890;23.446;2022-07-10T00:12:54;91764.00;;;15.04;69.80
39455;BME280;25155;41.890;23.446;2022-07-10T00:15:22;91770.13;;;14.99;69.93
39455;BME280;25155;41.890;23.446;2022-07-10T00:17:50;91775.09;;;15.01;69.21
39455;BME280;25155;41.890;23.446;2022-07-10T00:20:17;91781.34;;;15.05;69.46
39455;BME280;25155;41.890;23.446;2022-07-10T00:22:45;91772.88;;;15.08;68.79
39455;BME280;25155;41.890;23.446;2022-07-10T00:25:13;91772.28;;;15.11;68.71
39455;BME280;25155;41.890;23.446;2022-07-10T00:27:42;91767.81;;;15.11;68.78
39455;BME280;25155;41.890;23.446;2022-07-10T00:30:10;91766.44;;;15.14;68.53
39455;BME280;25155;41.890;23.446;2022-07-10T00:32:37;91761.19;;;15.14;68.22
39455;BME280;25155;41.890;23.446;2022-07-10T00:35:05;91761.78;;;15.11;68.37
39455;BME280;25155;41.890;23.446;2022-07-10T00:37:33;91760.31;;;15.05;67.84
39455;BME280;25155;41.890;23.446;2022-07-10T00:40:03;91759.25;;;15.06;68.27
39455;BME280;25155;41.890;23.446;2022-07-10T00:42:31;91760.16;;;15.01;68.76
39455;BME280;25155;41.890;23.446;2022-07-10T00:45:00;91755.19;;;15.00;68.56
39455;BME280;25155;41.890;23.446;2022-07-10T00:47:28;91747.78;;;15.02;68.73
39455;BME280;25155;41.890;23.446;2022-07-10T00:49:55;91751.19;;;15.02;68.33
39455;BME280;25155;41.890;23.446;2022-07-10T00:52:22;91747.00;;;15.01;67.97
39455;BME280;25155;41.890;23.446;2022-07-10T00:54:50;91747.78;;;15.02;68.25
39455;BME280;25155;41.890;23.446;2022-07-10T00:57:18;91744.69;;;15.00;68.29
39455;BME280;25155;41.890;23.446;2022-07-10T00:59:46;91748.38;;;14.99;68.04
39455;BME280;25155;41.890;23.446;2022-07-10T01:02:17;91738.38;;;14.73;67.50
39455;BME280;25155;41.890;23.446;2022-07-10T01:04:45;91743.09;;;14.43;68.77
39455;BME280;25155;41.890;23.446;2022-07-10T01:07:12;91744.75;;;14.39;68.92
39455;BME280;25155;41.890;23.446;2022-07-10T01:09:42;91739.78;;;14.37;68.88
39455;BME280;25155;41.890;23.446;2022-07-10T01:12:11;91724.03;;;14.37;68.35
39455;BME280;25155;41.890;23.446;2022-07-10T01:14:39;91733.09;;;14.45;68.61
39455;BME280;25155;41.890;23.446;2022-07-10T01:17:06;91720.56;;;14.42;68.68
39455;BME280;25155;41.890;23.446;2022-07-10T01:19:36;91727.38;;;14.43;68.16
39455;BME280;25155;41.890;23.446;2022-07-10T01:22:05;91728.91;;;14.44;68.52
39455;BME280;25155;41.890;23.446;2022-07-10T01:24:32;91719.19;;;14.45;68.49
39455;BME280;25155;41.890;23.446;2022-07-10T01:27:00;91720.44;;;14.47;68.01
39455;BME280;25155;41.890;23.446;2022-07-10T01:29:29;91723.66;;;14.44;68.16
39455;BME280;25155;41.890;23.446;2022-07-10T01:31:56;91718.50;;;14.39;68.85
39455;BME280;25155;41.890;23.446;2022-07-10T01:34:25;91712.59;;;14.33;69.10
39455;BME280;25155;41.890;23.446;2022-07-10T01:36:52;91712.97;;;14.27;69.13
39455;BME280;25155;41.890;23.446;2022-07-10T01:39:21;91711.41;;;14.26;68.83
39455;BME280;25155;41.890;23.446;2022-07-10T01:41:49;91712.97;;;14.27;68.71
39455;BME280;25155;41.890;23.446;2022-07-10T01:44:16;91700.34;;;14.29;68.45
39455;BME280;25155;41.890;23.446;2022-07-10T01:46:44;91703.25;;;14.27;68.36
39455;BME280;25155;41.890;23.446;2022-07-10T01:49:11;91702.97;;;14.29;68.44
39455;BME280;25155;41.890;23.446;2022-07-10T01:51:39;91706.34;;;14.29;68.55
39455;BME280;25155;41.890;23.446;2022-07-10T01:54:06;91702.09;;;14.33;68.37
39455;BME280;25155;41.890;23.446;2022-07-10T01:56:36;91702.84;;;14.34;68.72
39455;BME280;25155;41.890;23.446;2022-07-10T01:59:04;91699.75;;;14.32;68.59
39455;BME280;25155;41.890;23.446;2022-07-10T02:01:32;91702.66;;;14.30;68.91
39455;BME280;25155;41.890;23.446;2022-07-10T02:03:59;91694.00;;;14.30;69.62
39455;BME280;25155;41.890;23.446;2022-07-10T02:06:49;91697.19;;;14.13;70.83
39455;BME280;25155;41.890;23.446;2022-07-10T02:09:16;91698.16;;;14.03;70.86
39455;BME280;25155;41.890;23.446;2022-07-10T02:11:46;91689.50;;;14.02;70.43
39455;BME280;25155;41.890;23.446;2022-07-10T02:14:13;91692.34;;;14.06;70.64
39455;BME280;25155;41.890;23.446;2022-07-10T02:16:40;91697.19;;;14.13;70.22
39455;BME280;25155;41.890;23.446;2022-07-10T02:19:09;91685.34;;;14.15;70.41
39455;BME280;25155;41.890;23.446;2022-07-10T02:21:37;91697.09;;;14.18;70.33
39455;BME280;25155;41.890;23.446;2022-07-10T02:24:04;91697.63;;;14.20;70.05
39455;BME280;25155;41.890;23.446;2022-07-10T02:26:31;91698.38;;;14.20;70.16
39455;BME280;25155;41.890;23.446;2022-07-10T02:29:00;91701.00;;;14.20;70.21
39455;BME280;25155;41.890;23.446;2022-07-10T02:31:28;91703.81;;;14.24;70.10
39455;BME280;25155;41.890;23.446;2022-07-10T02:33:55;91705.66;;;14.24;70.19
39455;BME280;25155;41.890;23.446;2022-07-10T02:36:23;91708.28;;;14.24;70.38
39455;BME280;25155;41.890;23.446;2022-07-10T02:38:51;91705.38;;;14.25;70.27
39455;BME280;25155;41.890;23.446;2022-07-10T02:41:18;91705.66;;;14.24;70.25
39455;BME280;25155;41.890;23.446;2022-07-10T02:43:45;91715.66;;;14.21;70.69
39455;BME280;25155;41.890;23.446;2022-07-10T02:46:14;91717.78;;;14.19;70.88
39455;BME280;25155;41.890;23.446;2022-07-10T02:48:41;91711.00;;;14.18;70.70
39455;BME280;25155;41.890;23.446;2022-07-10T02:51:08;91714.69;;;14.17;70.55
39455;BME280;25155;41.890;23.446;2022-07-10T02:53:35;91722.28;;;14.19;70.90
39455;BME280;25155;41.890;23.446;2022-07-10T02:56:03;91719.94;;;14.17;70.76
39455;BME280;25155;41.890;23.446;2022-07-10T02:58:32;91722.66;;;14.12;70.57
39455;BME280;25155;41.890;23.446;2022-07-10T03:01:00;91721.88;;;14.12;70.49
39455;BME280;25155;41.890;23.446;2022-07-10T03:03:29;91722.53;;;14.03;71.23
39455;BME280;25155;41.890;23.446;2022-07-10T03:05:56;91721.28;;;14.01;70.98
39455;BME280;25155;41.890;23.446;2022-07-10T03:08:23;91726.03;;;13.99;71.63
39455;BME280;25155;41.890;23.446;2022-07-10T03:10:50;91721.06;;;13.97;71.70
39455;BME280;25155;41.890;23.446;2022-07-10T03:13:17;91728.66;;;13.99;71.51
39455;BME280;25155;41.890;23.446;2022-07-10T03:15:45;91732.53;;;14.01;71.09
39455;BME280;25155;41.890;23.446;2022-07-10T03:18:12;91720.41;;;14.06;71.39
39455;BME280;25155;41.890;23.446;2022-07-10T03:20:41;91709.63;;;14.07;71.55
39455;BME280;25155;41.890;23.446;2022-07-10T03:23:08;91728.94;;;14.11;71.09
39455;BME280;25155;41.890;23.446;2022-07-10T03:25:35;91724.22;;;14.13;71.40
39455;BME280;25155;41.890;23.446;2022-07-10T03:28:02;91723.13;;;14.14;71.40
39455;BME280;25155;41.890;23.446;2022-07-10T03:30:29;91725.75;;;14.14;71.33
39455;BME280;25155;41.890;23.446;2022-07-10T03:32:57;91729.66;;;14.17;71.35
39455;BME280;25155;41.890;23.446;2022-07-10T03:35:24;91735.09;;;14.20;70.96
39455;BME280;25155;41.890;23.446;2022-07-10T03:37:53;91728.28;;;14.19;71.00
39455;BME280;25155;41.890;23.446;2022-07-10T03:40:20;91728.28;;;14.19;71.07
39455;BME280;25155;41.890;23.446;2022-07-10T03:42:48;91731.63;;;14.25;71.20
39455;BME280;25155;41.890;23.446;2022-07-10T03:45:15;91736.06;;;14.25;71.23
39455;BME280;25155;41.890;23.446;2022-07-10T03:47:42;91730.06;;;14.24;71.37
39455;BME280;25155;41.890;23.446;2022-07-10T03:50:10;91740.53;;;14.24;71.14
39455;BME280;25155;41.890;23.446;2022-07-10T03:52:37;91744.44;;;14.27;71.69
39455;BME280;25155;41.890;23.446;2022-07-10T03:55:07;91733.94;;;14.27;71.12
39455;BME280;25155;41.890;23.446;2022-07-10T03:57:34;91738.69;;;14.25;72.78
39455;BME280;25155;41.890;23.446;2022-07-10T04:00:19;91737.00;;;14.01;74.64
39455;BME280;25155;41.890;23.446;2022-07-10T04:02:53;91741.66;;;13.90;75.10
39455;BME280;25155;41.890;23.446;2022-07-10T04:05:21;91738.13;;;13.81;75.49
39455;BME280;25155;41.890;23.446;2022-07-10T04:07:48;91729.75;;;13.79;76.09
39455;BME280;25155;41.890;23.446;2022-07-10T04:10:17;91730.69;;;13.69;76.59
39455;BME280;25155;41.890;23.446;2022-07-10T04:12:44;91725.47;;;13.69;76.62
39455;BME280;25155;41.890;23.446;2022-07-10T04:15:12;91730.41;;;13.71;77.25
39455;BME280;25155;41.890;23.446;2022-07-10T04:17:39;91729.22;;;13.63;76.57
39455;BME280;25155;41.890;23.446;2022-07-10T04:20:07;91723.50;;;13.61;76.87
39455;BME280;25155;41.890;23.446;2022-07-10T04:22:35;91729.22;;;13.63;76.77
39455;BME280;25155;41.890;23.446;2022-07-10T04:25:03;91719.94;;;13.71;77.07
39455;BME280;25155;41.890;23.446;2022-07-10T04:27:33;91726.31;;;13.64;76.61
39455;BME280;25155;41.890;23.446;2022-07-10T04:30:00;91719.66;;;13.72;76.75
39455;BME280;25155;41.890;23.446;2022-07-10T04:32:27;91725.09;;;13.76;76.58
39455;BME280;25155;41.890;23.446;2022-07-10T04:34:55;91728.00;;;13.74;76.42
39455;BME280;25155;41.890;23.446;2022-07-10T04:37:22;91733.63;;;13.81;76.25
39455;BME280;25155;41.890;23.446;2022-07-10T04:39:49;91726.78;;;13.86;76.16
39455;BME280;25155;41.890;23.446;2022-07-10T04:42:16;91729.31;;;13.91;75.57
39455;BME280;25155;41.890;23.446;2022-07-10T04:44:45;91726.59;;;13.96;75.47
39455;BME280;25155;41.890;23.446;2022-07-10T04:47:12;91730.59;;;14.07;75.66
39455;BME280;25155;41.890;23.446;2022-07-10T04:49:40;91728.09;;;14.16;75.30
39455;BME280;25155;41.890;23.446;2022-07-10T04:52:07;91732.75;;;14.19;75.27
39455;BME280;25155;41.890;23.446;2022-07-10T04:54:35;91740.53;;;14.24;75.19
39455;BME280;25155;41.890;23.446;2022-07-10T04:57:03;91728.91;;;14.30;74.83
39455;BME280;25155;41.890;23.446;2022-07-10T04:59:30;91736.69;;;14.35;75.32
39455;BME280;25155;41.890;23.446;2022-07-10T05:01:59;91734.06;;;14.35;75.55
39455;BME280;25155;41.890;23.446;2022-07-10T05:04:26;91736.59;;;14.40;75.33
39455;BME280;25155;41.890;23.446;2022-07-10T05:06:54;91731.22;;;14.46;75.18
39455;BME280;25155;41.890;23.446;2022-07-10T05:09:21;91735.81;;;14.54;75.06
39455;BME280;25155;41.890;23.446;2022-07-10T05:11:48;91734.38;;;14.62;74.66
39455;BME280;25155;41.890;23.446;2022-07-10T05:14:15;91728.25;;;14.66;74.44
39455;BME280;25155;41.890;23.446;2022-07-10T05:16:43;91733.19;;;14.68;74.71
39455;BME280;25155;41.890;23.446;2022-07-10T05:19:11;91729.53;;;14.69;74.53
39455;BME280;25155;41.890;23.446;2022-07-10T05:21:39;91719.22;;;14.72;74.60
39455;BME280;25155;41.890;23.446;2022-07-10T05:24:06;91718.63;;;14.75;74.82
39455;BME280;25155;41.890;23.446;2022-07-10T05:26:34;91718.22;;;14.82;74.76
39455;BME280;25155;41.890;23.446;2022-07-10T05:29:02;91709.47;;;14.87;74.25
39455;BME280;25155;41.890;23.446;2022-07-10T05:31:29;91709.09;;;14.93;74.79
39455;BME280;25155;41.890;23.446;2022-07-10T05:33:56;91715.78;;;15.00;73.90
39455;BME280;25155;41.890;23.446;2022-07-10T05:36:25;91714.41;;;15.02;73.81
39455;BME280;25155;41.890;23.446;2022-07-10T05:38:53;91714.28;;;15.07;73.75
39455;BME280;25155;41.890;23.446;2022-07-10T05:41:20;91713.25;;;15.08;74.12
39455;BME280;25155;41.890;23.446;2022-07-10T05:43:48;91717.63;;;15.13;73.97
39455;BME280;25155;41.890;23.446;2022-07-10T05:46:15;91714.09;;;15.18;73.74
39455;BME280;25155;41.890;23.446;2022-07-10T05:48:42;91713.19;;;15.22;73.66
39455;BME280;25155;41.890;23.446;2022-07-10T05:51:09;91710.78;;;15.26;73.70
39455;BME280;25155;41.890;23.446;2022-07-10T05:53:38;91712.91;;;15.24;73.50
39455;BME280;25155;41.890;23.446;2022-07-10T05:56:06;91712.31;;;15.27;73.60
39455;BME280;25155;41.890;23.446;2022-07-10T05:58:33;91707.81;;;15.27;73.51
39455;BME280;25155;41.890;23.446;2022-07-10T06:01:01;91701.03;;;15.26;72.83
39455;BME280;25155;41.890;23.446;2022-07-10T06:03:28;91688.84;;;15.30;73.32
39455;BME280;25155;41.890;23.446;2022-07-10T06:05:56;91696.31;;;15.37;72.79
39455;BME280;25155;41.890;23.446;2022-07-10T06:08:24;91695.91;;;15.44;72.95
39455;BME280;25155;41.890;23.446;2022-07-10T06:10:52;91699.09;;;15.55;72.96
39455;BME280;25155;41.890;23.446;2022-07-10T06:13:20;91697.41;;;15.59;72.45
39455;BME280;25155;41.890;23.446;2022-07-10T06:15:47;91692.34;;;15.62;72.29
39455;BME280;25155;41.890;23.446;2022-07-10T06:18:14;91687.91;;;15.72;72.70
39455;BME280;25155;41.890;23.446;2022-07-10T06:20:41;91688.19;;;15.84;71.84
39455;BME280;25155;41.890;23.446;2022-07-10T06:23:09;91690.38;;;15.91;72.61
39455;BME280;25155;41.890;23.446;2022-07-10T06:25:36;91700.94;;;15.99;73.17
39455;BME280;25155;41.890;23.446;2022-07-10T06:28:05;91687.66;;;16.04;72.29
39455;BME280;25155;41.890;23.446;2022-07-10T06:30:32;91686.03;;;16.17;73.08
39455;BME280;25155;41.890;23.446;2022-07-10T06:32:59;91674.63;;;16.31;72.85
39455;BME280;25155;41.890;23.446;2022-07-10T06:35:27;91675.78;;;16.47;73.22
39455;BME280;25155;41.890;23.446;2022-07-10T06:37:54;91674.88;;;16.60;73.12
39455;BME280;25155;41.890;23.446;2022-07-10T06:40:21;91671.66;;;16.72;72.61
39455;BME280;25155;41.890;23.446;2022-07-10T06:42:48;91675.00;;;16.87;72.17
39455;BME280;25155;41.890;23.446;2022-07-10T06:45:17;91679.97;;;16.97;71.99
39455;BME280;25155;41.890;23.446;2022-07-10T06:47:44;91676.09;;;17.12;72.31
39455;BME280;25155;41.890;23.446;2022-07-10T06:50:25;91669.75;;;17.22;72.38
39455;BME280;25155;41.890;23.446;2022-07-10T06:52:53;91678.44;;;17.31;72.55
39455;BME280;25155;41.890;23.446;2022-07-10T06:55:21;91675.03;;;17.39;72.48
39455;BME280;25155;41.890;23.446;2022-07-10T06:57:48;91670.53;;;17.48;72.81
39455;BME280;25155;41.890;23.446;2022-07-10T07:00:17;91673.47;;;17.56;72.11
39455;BME280;25155;41.890;23.446;2022-07-10T07:02:45;91660.28;;;17.64;71.95
39455;BME280;25155;41.890;23.446;2022-07-10T07:05:13;91670.66;;;17.78;71.98
39455;BME280;25155;41.890;23.446;2022-07-10T07:07:40;91666.63;;;17.89;72.53
39455;BME280;25155;41.890;23.446;2022-07-10T07:10:09;91666.78;;;17.93;71.01
39455;BME280;25155;41.890;23.446;2022-07-10T07:12:37;91655.75;;;18.00;71.18
39455;BME280;25155;41.890;23.446;2022-07-10T07:15:06;91661.13;;;18.12;70.82
39455;BME280;25155;41.890;23.446;2022-07-10T07:17:40;91658.16;;;18.22;70.38
39455;BME280;25155;41.890;23.446;2022-07-10T07:20:22;91654.84;;;18.34;70.05
39455;BME280;25155;41.890;23.446;2022-07-10T07:23:06;91659.50;;;18.37;69.51
39455;BME280;25155;41.890;23.446;2022-07-10T07:25:36;91658.38;;;18.47;70.56
39455;BME280;25155;41.890;23.446;2022-07-10T07:28:07;91658.59;;;18.63;70.05
39455;BME280;25155;41.890;23.446;2022-07-10T07:30:35;91654.81;;;18.73;67.29
39455;BME280;25155;41.890;23.446;2022-07-10T07:33:04;91653.69;;;18.83;67.66
39455;BME280;25155;41.890;23.446;2022-07-10T07:35:31;91648.06;;;18.93;67.90
39455;BME280;25155;41.890;23.446;2022-07-10T07:38:01;91650.16;;;19.08;67.16
39455;BME280;25155;41.890;23.446;2022-07-10T07:40:29;91645.13;;;19.15;65.51
39455;BME280;25155;41.890;23.446;2022-07-10T07:42:57;91643.38;;;19.20;65.60
39455;BME280;25155;41.890;23.446;2022-07-10T07:45:24;91643.75;;;19.30;66.23
39455;BME280;25155;41.890;23.446;2022-07-10T07:47:53;91635.34;;;19.49;66.76
39455;BME280;25155;41.890;23.446;2022-07-10T07:50:24;91635.66;;;19.69;67.65
39455;BME280;25155;41.890;23.446;2022-07-10T07:52:52;91637.38;;;19.86;67.20
39455;BME280;25155;41.890;23.446;2022-07-10T07:55:21;91640.06;;;19.98;65.29
39455;BME280;25155;41.890;23.446;2022-07-10T07:57:51;91636.78;;;20.01;62.54
39455;BME280;25155;41.890;23.446;2022-07-10T08:00:20;91634.03;;;20.10;62.04
39455;BME280;25155;41.890;23.446;2022-07-10T08:02:48;91627.41;;;20.16;60.13
39455;BME280;25155;41.890;23.446;2022-07-10T08:05:16;91630.63;;;20.22;58.77
39455;BME280;25155;41.890;23.446;2022-07-10T08:07:46;91620.50;;;20.36;60.50
39455;BME280;25155;41.890;23.446;2022-07-10T08:10:15;91625.66;;;20.45;58.34
39455;BME280;25155;41.890;23.446;2022-07-10T08:12:43;91628.31;;;20.45;56.36
39455;BME280;25155;41.890;23.446;2022-07-10T08:15:15;91628.44;;;20.49;58.09
39455;BME280;25155;41.890;23.446;2022-07-10T08:17:42;91618.72;;;20.53;55.41
39455;BME280;25155;41.890;23.446;2022-07-10T08:20:11;91625.00;;;20.60;54.51
39455;BME280;25155;41.890;23.446;2022-07-10T08:22:39;91626.56;;;20.61;53.60
39455;BME280;25155;41.890;23.446;2022-07-10T08:25:09;91635.75;;;20.64;55.82
39455;BME280;25155;41.890;23.446;2022-07-10T08:27:36;91631.34;;;20.68;58.04
39455;BME280;25155;41.890;23.446;2022-07-10T08:30:05;91622.56;;;20.55;58.58
39455;BME280;25155;41.890;23.446;2022-07-10T08:32:33;91629.53;;;20.48;58.82
39455;BME280;25155;41.890;23.446;2022-07-10T08:35:00;91623.47;;;20.35;59.08
39455;BME280;25155;41.890;23.446;2022-07-10T08:37:27;91621.16;;;20.21;58.99
39455;BME280;25155;41.890;23.446;2022-07-10T08:39:54;91626.72;;;20.07;59.63
39455;BME280;25155;41.890;23.446;2022-07-10T08:42:24;91632.66;;;19.91;59.89
39455;BME280;25155;41.890;23.446;2022-07-10T08:44:51;91626.59;;;19.91;61.17
39455;BME280;25155;41.890;23.446;2022-07-10T08:47:21;91629.66;;;19.81;60.44
39455;BME280;25155;41.890;23.446;2022-07-10T08:49:51;91629.78;;;19.84;60.56
39455;BME280;25155;41.890;23.446;2022-07-10T08:52:25;91628.13;;;19.92;60.39
39455;BME280;25155;41.890;23.446;2022-07-10T08:54:53;91626.50;;;20.00;60.52
39455;BME280;25155;41.890;23.446;2022-07-10T08:57:24;91628.38;;;19.99;60.23
39455;BME280;25155;41.890;23.446;2022-07-10T08:59:52;91629.97;;;20.13;59.34
39455;BME280;25155;41.890;23.446;2022-07-10T09:02:21;91630.19;;;20.32;59.99
39455;BME280;25155;41.890;23.446;2022-07-10T09:04:49;91618.72;;;20.53;59.17
39455;BME280;25155;41.890;23.446;2022-07-10T09:07:16;91624.78;;;20.53;58.26
39455;BME280;25155;41.890;23.446;2022-07-10T09:09:54;91619.72;;;20.36;55.71
39455;BME280;25155;41.890;23.446;2022-07-10T09:12:24;91621.81;;;20.30;57.45
39455;BME280;25155;41.890;23.446;2022-07-10T09:14:51;91626.44;;;20.21;57.60
39455;BME280;25155;41.890;23.446;2022-07-10T09:17:19;91619.38;;;20.13;57.19
39455;BME280;25155;41.890;23.446;2022-07-10T09:19:47;91628.19;;;20.17;57.92
39455;BME280;25155;41.890;23.446;2022-07-10T09:22:14;91622.13;;;20.16;57.26
39455;BME280;25155;41.890;23.446;2022-07-10T09:24:42;91617.72;;;20.20;57.13
39455;BME280;25155;41.890;23.446;2022-07-10T09:27:13;91616.19;;;20.19;58.39
39455;BME280;25155;41.890;23.446;2022-07-10T09:29:50;91619.38;;;20.25;56.93
39455;BME280;25155;41.890;23.446;2022-07-10T09:32:20;91621.16;;;20.33;58.19
39455;BME280;25155;41.890;23.446;2022-07-10T09:34:49;91622.22;;;20.32;56.64
39455;BME280;25155;41.890;23.446;2022-07-10T09:37:39;91618.81;;;20.32;57.75
39455;BME280;25155;41.890;23.446;2022-07-10T09:40:07;91619.50;;;20.41;58.03
39455;BME280;25155;41.890;23.446;2022-07-10T09:42:37;91625.34;;;20.46;58.02
39455;BME280;25155;41.890;23.446;2022-07-10T09:45:19;91630.63;;;20.46;57.74
39455;BME280;25155;41.890;23.446;2022-07-10T09:47:55;91620.94;;;20.51;57.59
39455;BME280;25155;41.890;23.446;2022-07-10T09:50:25;91618.31;;;20.63;57.72
39455;BME280;25155;41.890;23.446;2022-07-10T09:52:54;91617.75;;;20.70;56.47
39455;BME280;25155;41.890;23.446;2022-07-10T09:55:24;91610.81;;;20.77;55.91
39455;BME280;25155;41.890;23.446;2022-07-10T09:57:56;91605.47;;;20.90;55.01
39455;BME280;25155;41.890;23.446;2022-07-10T10:00:27;91608.63;;;21.08;54.34
39455;BME280;25155;41.890;23.446;2022-07-10T10:02:55;91607.88;;;20.95;55.34
39455;BME280;25155;41.890;23.446;2022-07-10T10:05:34;91616.72;;;21.39;52.86
39455;BME280;25155;41.890;23.446;2022-07-10T10:08:09;91612.66;;;21.70;52.33
39455;BME280;25155;41.890;23.446;2022-07-10T10:10:38;91606.09;;;21.96;52.70
39455;BME280;25155;41.890;23.446;2022-07-10T10:13:08;91607.75;;;22.17;53.77
39455;BME280;25155;41.890;23.446;2022-07-10T10:15:38;91606.94;;;22.28;49.13
39455;BME280;25155;41.890;23.446;2022-07-10T10:18:06;91606.00;;;22.37;48.69
39455;BME280;25155;41.890;23.446;2022-07-10T10:20:34;91600.75;;;22.56;50.69
39455;BME280;25155;41.890;23.446;2022-07-10T10:23:09;91599.47;;;22.66;51.66
39455;BME280;25155;41.890;23.446;2022-07-10T10:25:38;91596.69;;;22.78;52.77
39455;BME280;25155;41.890;23.446;2022-07-10T10:28:07;91596.00;;;22.81;51.95
39455;BME280;25155;41.890;23.446;2022-07-10T10:30:39;91602.63;;;22.72;50.77
39455;BME280;25155;41.890;23.446;2022-07-10T10:33:43;91605.41;;;22.59;51.81
39455;BME280;25155;41.890;23.446;2022-07-10T10:36:13;91603.03;;;22.74;51.97
39455;BME280;25155;41.890;23.446;2022-07-10T10:39:09;91585.03;;;22.83;51.67
39455;BME280;25155;41.890;23.446;2022-07-10T10:41:39;91579.84;;;22.90;51.40
39455;BME280;25155;41.890;23.446;2022-07-10T10:44:24;91589.59;;;22.66;51.10
39455;BME280;25155;41.890;23.446;2022-07-10T10:47:02;91584.34;;;22.70;51.39
39455;BME280;25155;41.890;23.446;2022-07-10T10:49:49;91597.72;;;22.74;52.02
39455;BME280;25155;41.890;23.446;2022-07-10T10:52:17;91594.69;;;22.91;51.16
39455;BME280;25155;41.890;23.446;2022-07-10T10:55:03;91590.22;;;22.95;49.05
39455;BME280;25155;41.890;23.446;2022-07-10T10:57:40;91580.16;;;23.20;50.74
39455;BME280;25155;41.890;23.446;2022-07-10T11:00:34;91576.00;;;23.43;50.69
39455;BME280;25155;41.890;23.446;2022-07-10T11:03:17;91572.66;;;23.65;51.05
39455;BME280;25155;41.890;23.446;2022-07-10T11:05:47;91573.13;;;23.90;49.42
39455;BME280;25155;41.890;23.446;2022-07-10T11:08:40;91581.06;;;24.10;47.42
39455;BME280;25155;41.890;23.446;2022-07-10T11:11:38;91574.38;;;24.20;47.90
39455;BME280;25155;41.890;23.446;2022-07-10T11:14:11;91566.66;;;24.14;48.77
39455;BME280;25155;41.890;23.446;2022-07-10T11:16:49;91567.31;;;24.08;47.93
39455;BME280;25155;41.890;23.446;2022-07-10T11:19:24;91557.56;;;24.16;47.98
39455;BME280;25155;41.890;23.446;2022-07-10T11:22:03;91555.94;;;24.34;49.09
39455;BME280;25155;41.890;23.446;2022-07-10T11:24:51;91551.75;;;24.33;46.41
39455;BME280;25155;41.890;23.446;2022-07-10T11:27:29;91555.72;;;24.43;47.27
39455;BME280;25155;41.890;23.446;2022-07-10T11:30:01;91554.41;;;24.56;47.60
39455;BME280;25155;41.890;23.446;2022-07-10T11:32:29;91558.25;;;24.59;46.58
39455;BME280;25155;41.890;23.446;2022-07-10T11:34:58;91556.50;;;24.70;46.45
39455;BME280;25155;41.890;23.446;2022-07-10T11:37:26;91557.97;;;24.67;46.53
39455;BME280;25155;41.890;23.446;2022-07-10T11:40:11;91539.53;;;24.55;45.76
39455;BME280;25155;41.890;23.446;2022-07-10T11:42:51;91556.88;;;24.45;45.90
39455;BME280;25155;41.890;23.446;2022-07-10T11:45:28;91546.47;;;24.37;46.26
39455;BME280;25155;41.890;23.446;2022-07-10T11:47:57;91550.56;;;24.30;47.60
39455;BME280;25155;41.890;23.446;2022-07-10T11:50:27;91555.00;;;24.23;45.53
39455;BME280;25155;41.890;23.446;2022-07-10T11:52:54;91553.34;;;24.14;45.00
39455;BME280;25155;41.890;23.446;2022-07-10T11:55:23;91551.28;;;24.04;47.23
39455;BME280;25155;41.890;23.446;2022-07-10T11:57:50;91559.22;;;24.24;46.42
39455;BME280;25155;41.890;23.446;2022-07-10T12:00:23;91554.50;;;24.40;45.52
39455;BME280;25155;41.890;23.446;2022-07-10T12:02:50;91561.31;;;24.61;44.64
39455;BME280;25155;41.890;23.446;2022-07-10T12:05:34;91569.88;;;24.74;44.46
39455;BME280;25155;41.890;23.446;2022-07-10T12:08:03;91561.16;;;24.77;43.85
39455;BME280;25155;41.890;23.446;2022-07-10T12:10:32;91574.56;;;24.80;43.88
39455;BME280;25155;41.890;23.446;2022-07-10T12:13:08;91571.53;;;24.82;44.25
39455;BME280;25155;41.890;23.446;2022-07-10T12:15:38;91574.28;;;24.89;42.75
39455;BME280;25155;41.890;23.446;2022-07-10T12:18:07;91580.72;;;24.84;42.99
39455;BME280;25155;41.890;23.446;2022-07-10T12:20:37;91585.38;;;24.91;44.55
39455;BME280;25155;41.890;23.446;2022-07-10T12:23:08;91578.53;;;24.94;45.26
39455;BME280;25155;41.890;23.446;2022-07-10T12:25:36;91585.63;;;24.82;46.10
39455;BME280;25155;41.890;23.446;2022-07-10T12:28:03;91590.56;;;24.80;45.62
39455;BME280;25155;41.890;23.446;2022-07-10T12:30:38;91597.44;;;24.81;46.12
39455;BME280;25155;41.890;23.446;2022-07-10T12:33:10;91596.84;;;24.95;45.32
39455;BME280;25155;41.890;23.446;2022-07-10T12:35:50;91597.03;;;25.06;44.87
39455;BME280;25155;41.890;23.446;2022-07-10T12:38:18;91589.88;;;25.14;45.43
39455;BME280;25155;41.890;23.446;2022-07-10T12:40:46;91594.13;;;25.18;45.12
39455;BME280;25155;41.890;23.446;2022-07-10T12:43:25;91610.19;;;25.22;45.67
39455;BME280;25155;41.890;23.446;2022-07-10T12:46:12;91610.44;;;25.13;45.18
39455;BME280;25155;41.890;23.446;2022-07-10T12:48:41;91605.88;;;25.14;46.05
39455;BME280;25155;41.890;23.446;2022-07-10T12:51:22;91608.75;;;25.01;46.44
39455;BME280;25155;41.890;23.446;2022-07-10T12:53:50;91605.69;;;24.99;46.16
39455;BME280;25155;41.890;23.446;2022-07-10T12:56:34;91612.06;;;24.91;45.92
39455;BME280;25155;41.890;23.446;2022-07-10T12:59:03;91612.00;;;24.88;46.54
39455;BME280;25155;41.890;23.446;2022-07-10T13:01:40;91616.81;;;24.78;47.83
39455;BME280;25155;41.890;23.446;2022-07-10T13:04:08;91616.38;;;24.73;47.64